sensor_id;sensor_type;location;lat;lon;timestamp;P1;durP1;ratioP1;P2;durP2;ratioP2
7515;SDS011;3799;47.184;8.538;2023-07-28T00:02:24;3.65;;;1.00;;
7515;SDS011;3799;47.184;8.538;2023-07-28T00:04:51;2.53;;;1.00;;
7515;SDS011;3799;47.184;8.538;2023-07-28T00:07:18;3.15;;;1.33;;
7515;SDS011;3799;47.184;8.538;2023-07-28T00:09:45;3.67;;;1.15;;
7515;SDS011;3799;47.184;8.538;2023-07-28T00:12:12;3.58;;;1.20;;
7515;SDS011;3799;47.184;8.538;2023-07-28T00:14:39;3.38;;;1.20;;
7515;SDS011;3799;47.184;8.538;2023-07-28T00:17:09;2.53;;;0.98;;
7515;SDS011;3799;47.184;8.538;2023-07-28T00:19:36;1.98;;;0.77;;
7515;SDS011;3799;47.184;8.538;2023-07-28T00:22:03;2.60;;;1.30;;
7515;SDS011;3799;47.184;8.538;2023-07-28T00:24:33;3.22;;;1.40;;
7515;SDS011;3799;47.184;8.538;2023-07-28T00:27:00;2.65;;;0.98;;
7515;SDS011;3799;47.184;8.538;2023-07-28T00:29:27;2.63;;;0.80;;
7515;SDS011;3799;47.184;8.538;2023-07-28T00:31:54;2.80;;;0.77;;
7515;SDS011;3799;47.184;8.538;2023-07-28T00:34:21;2.33;;;1.10;;
7515;SDS011;3799;47.184;8.538;2023-07-28T00:36:49;3.10;;;1.17;;
7515;SDS011;3799;47.184;8.538;2023-07-28T00:39:19;3.38;;;0.90;;
7515;SDS011;3799;47.184;8.538;2023-07-28T00:41:49;3.20;;;1.08;;
7515;SDS011;3799;47.184;8.538;2023-07-28T00:44:16;3.08;;;1.10;;
7515;SDS011;3799;47.184;8.538;2023-07-28T00:46:44;2.78;;;1.30;;
7515;SDS011;3799;47.184;8.538;2023-07-28T00:49:12;3.17;;;1.30;;
7515;SDS011;3799;47.184;8.538;2023-07-28T00:51:42;3.15;;;1.10;;
7515;SDS011;3799;47.184;8.538;2023-07-28T00:54:09;2.58;;;0.88;;
7515;SDS011;3799;47.184;8.538;2023-07-28T00:56:38;2.30;;;0.80;;
7515;SDS011;3799;47.184;8.538;2023-07-28T00:59:05;2.40;;;0.85;;
7515;SDS011;3799;47.184;8.538;2023-07-28T01:01:33;4.95;;;1.10;;
7515;SDS011;3799;47.184;8.538;2023-07-28T01:04:01;2.92;;;1.10;;
7515;SDS011;3799;47.184;8.538;2023-07-28T01:09:26;2.30;;;1.10;;
7515;SDS011;3799;47.184;8.538;2023-07-28T01:12:01;2.05;;;0.85;;
7515;SDS011;3799;47.184;8.538;2023-07-28T01:14:35;4.35;;;1.00;;
7515;SDS011;3799;47.184;8.538;2023-07-28T01:17:08;3.13;;;0.93;;
7515;SDS011;3799;47.184;8.538;2023-07-28T01:19:35;2.42;;;0.90;;
7515;SDS011;3799;47.184;8.538;2023-07-28T01:27:43;2.13;;;0.80;;
7515;SDS011;3799;47.184;8.538;2023-07-28T01:30:11;3.25;;;1.05;;
7515;SDS011;3799;47.184;8.538;2023-07-28T01:32:39;3.88;;;1.20;;
7515;SDS011;3799;47.184;8.538;2023-07-28T01:35:06;2.42;;;1.20;;
7515;SDS011;3799;47.184;8.538;2023-07-28T01:37:34;2.33;;;1.05;;
7515;SDS011;3799;47.184;8.538;2023-07-28T01:40:01;6.00;;;1.10;;
7515;SDS011;3799;47.184;8.538;2023-07-28T01:42:28;1.67;;;0.63;;
7515;SDS011;3799;47.184;8.538;2023-07-28T01:44:55;2.30;;;1.10;;
7515;SDS011;3799;47.184;8.538;2023-07-28T01:47:23;2.47;;;0.88;;
7515;SDS011;3799;47.184;8.538;2023-07-28T01:49:51;3.25;;;1.20;;
7515;SDS011;3799;47.184;8.538;2023-07-28T01:52:19;3.95;;;1.50;;
7515;SDS011;3799;47.184;8.538;2023-07-28T01:54:46;2.92;;;1.23;;
7515;SDS011;3799;47.184;8.538;2023-07-28T01:57:13;4.63;;;1.30;;
7515;SDS011;3799;47.184;8.538;2023-07-28T01:59:40;4.00;;;1.40;;
7515;SDS011;3799;47.184;8.538;2023-07-28T02:02:07;2.35;;;1.02;;
7515;SDS011;3799;47.184;8.538;2023-07-28T02:04:34;2.30;;;0.88;;
7515;SDS011;3799;47.184;8.538;2023-07-28T02:07:02;2.47;;;1.10;;
7515;SDS011;3799;47.184;8.538;2023-07-28T02:09:29;3.35;;;1.23;;
7515;SDS011;3799;47.184;8.538;2023-07-28T02:11:56;3.50;;;1.17;;
7515;SDS011;3799;47.184;8.538;2023-07-28T02:14:23;2.72;;;1.20;;
7515;SDS011;3799;47.184;8.538;2023-07-28T02:16:51;2.30;;;0.90;;
7515;SDS011;3799;47.184;8.538;2023-07-28T02:19:18;2.55;;;1.02;;
7515;SDS011;3799;47.184;8.538;2023-07-28T02:21:45;7.13;;;1.25;;
7515;SDS011;3799;47.184;8.538;2023-07-28T02:24:12;2.17;;;0.98;;
7515;SDS011;3799;47.184;8.538;2023-07-28T02:26:40;2.10;;;0.90;;
7515;SDS011;3799;47.184;8.538;2023-07-28T02:29:07;4.03;;;1.23;;
7515;SDS011;3799;47.184;8.538;2023-07-28T02:31:34;2.17;;;0.90;;
7515;SDS011;3799;47.184;8.538;2023-07-28T02:34:01;3.85;;;1.23;;
7515;SDS011;3799;47.184;8.538;2023-07-28T02:36:29;2.78;;;1.20;;
7515;SDS011;3799;47.184;8.538;2023-07-28T02:38:56;2.85;;;1.30;;
7515;SDS011;3799;47.184;8.538;2023-07-28T02:41:23;2.80;;;1.20;;
7515;SDS011;3799;47.184;8.538;2023-07-28T02:43:52;2.67;;;1.40;;
7515;SDS011;3799;47.184;8.538;2023-07-28T02:46:19;2.75;;;1.38;;
7515;SDS011;3799;47.184;8.538;2023-07-28T02:48:47;3.85;;;1.58;;
7515;SDS011;3799;47.184;8.538;2023-07-28T02:51:14;5.00;;;2.00;;
7515;SDS011;3799;47.184;8.538;2023-07-28T02:53:41;6.53;;;2.40;;
7515;SDS011;3799;47.184;8.538;2023-07-28T02:56:08;5.15;;;2.10;;
7515;SDS011;3799;47.184;8.538;2023-07-28T02:58:35;3.97;;;2.00;;
7515;SDS011;3799;47.184;8.538;2023-07-28T03:01:02;5.35;;;2.22;;
7515;SDS011;3799;47.184;8.538;2023-07-28T03:05:59;4.38;;;1.90;;
7515;SDS011;3799;47.184;8.538;2023-07-28T03:08:27;4.55;;;1.73;;
7515;SDS011;3799;47.184;8.538;2023-07-28T03:10:57;3.53;;;1.45;;
7515;SDS011;3799;47.184;8.538;2023-07-28T03:13:25;4.38;;;2.05;;
7515;SDS011;3799;47.184;8.538;2023-07-28T03:15:52;4.45;;;1.75;;
7515;SDS011;3799;47.184;8.538;2023-07-28T03:18:19;3.70;;;1.60;;
7515;SDS011;3799;47.184;8.538;2023-07-28T03:20:47;4.15;;;1.75;;
7515;SDS011;3799;47.184;8.538;2023-07-28T03:23:14;3.40;;;1.80;;
7515;SDS011;3799;47.184;8.538;2023-07-28T03:25:42;4.65;;;1.45;;
7515;SDS011;3799;47.184;8.538;2023-07-28T03:28:09;4.80;;;1.75;;
7515;SDS011;3799;47.184;8.538;2023-07-28T03:30:36;5.22;;;1.30;;
7515;SDS011;3799;47.184;8.538;2023-07-28T03:33:03;4.05;;;1.50;;
7515;SDS011;3799;47.184;8.538;2023-07-28T03:35:31;4.13;;;1.63;;
7515;SDS011;3799;47.184;8.538;2023-07-28T03:37:58;2.78;;;1.35;;
7515;SDS011;3799;47.184;8.538;2023-07-28T03:40:25;4.93;;;1.20;;
7515;SDS011;3799;47.184;8.538;2023-07-28T03:42:53;2.95;;;1.17;;
7515;SDS011;3799;47.184;8.538;2023-07-28T03:45:20;3.28;;;1.40;;
7515;SDS011;3799;47.184;8.538;2023-07-28T03:47:48;4.15;;;1.50;;
7515;SDS011;3799;47.184;8.538;2023-07-28T03:50:15;2.65;;;1.35;;
7515;SDS011;3799;47.184;8.538;2023-07-28T03:52:42;3.92;;;1.70;;
7515;SDS011;3799;47.184;8.538;2023-07-28T03:55:10;3.92;;;1.58;;
7515;SDS011;3799;47.184;8.538;2023-07-28T03:57:37;3.58;;;1.33;;
7515;SDS011;3799;47.184;8.538;2023-07-28T04:00:05;4.68;;;1.40;;
7515;SDS011;3799;47.184;8.538;2023-07-28T04:02:33;5.10;;;1.50;;
7515;SDS011;3799;47.184;8.538;2023-07-28T04:05:00;3.85;;;1.52;;
7515;SDS011;3799;47.184;8.538;2023-07-28T04:07:27;4.22;;;1.60;;
7515;SDS011;3799;47.184;8.538;2023-07-28T04:09:54;4.95;;;1.48;;
7515;SDS011;3799;47.184;8.538;2023-07-28T04:12:22;2.85;;;1.40;;
7515;SDS011;3799;47.184;8.538;2023-07-28T04:14:49;5.22;;;1.77;;
7515;SDS011;3799;47.184;8.538;2023-07-28T04:17:21;2.80;;;1.40;;
7515;SDS011;3799;47.184;8.538;2023-07-28T04:19:48;3.20;;;1.42;;
7515;SDS011;3799;47.184;8.538;2023-07-28T04:22:15;3.65;;;1.45;;
7515;SDS011;3799;47.184;8.538;2023-07-28T04:24:47;5.53;;;1.55;;
7515;SDS011;3799;47.184;8.538;2023-07-28T04:27:15;2.80;;;1.30;;
7515;SDS011;3799;47.184;8.538;2023-07-28T04:29:42;4.00;;;1.45;;
7515;SDS011;3799;47.184;8.538;2023-07-28T04:32:09;9.70;;;1.40;;
7515;SDS011;3799;47.184;8.538;2023-07-28T04:34:36;3.05;;;1.27;;
7515;SDS011;3799;47.184;8.538;2023-07-28T04:37:03;4.10;;;1.13;;
7515;SDS011;3799;47.184;8.538;2023-07-28T04:39:31;2.63;;;1.17;;
7515;SDS011;3799;47.184;8.538;2023-07-28T04:41:58;3.67;;;1.20;;
7515;SDS011;3799;47.184;8.538;2023-07-28T04:44:29;3.33;;;0.80;;
7515;SDS011;3799;47.184;8.538;2023-07-28T04:46:56;3.08;;;1.15;;
7515;SDS011;3799;47.184;8.538;2023-07-28T04:49:23;3.75;;;1.20;;
7515;SDS011;3799;47.184;8.538;2023-07-28T04:51:50;4.97;;;0.90;;
7515;SDS011;3799;47.184;8.538;2023-07-28T04:54:18;3.20;;;1.25;;
7515;SDS011;3799;47.184;8.538;2023-07-28T04:56:45;4.38;;;1.10;;
7515;SDS011;3799;47.184;8.538;2023-07-28T04:59:12;4.07;;;1.20;;
7515;SDS011;3799;47.184;8.538;2023-07-28T05:01:40;3.60;;;0.88;;
7515;SDS011;3799;47.184;8.538;2023-07-28T05:04:07;4.70;;;1.13;;
7515;SDS011;3799;47.184;8.538;2023-07-28T05:06:35;2.63;;;0.93;;
7515;SDS011;3799;47.184;8.538;2023-07-28T05:09:02;2.40;;;1.05;;
7515;SDS011;3799;47.184;8.538;2023-07-28T05:11:29;4.80;;;1.67;;
7515;SDS011;3799;47.184;8.538;2023-07-28T05:13:56;3.65;;;0.80;;
7515;SDS011;3799;47.184;8.538;2023-07-28T05:16:23;3.53;;;1.15;;
7515;SDS011;3799;47.184;8.538;2023-07-28T05:18:51;3.40;;;1.13;;
7515;SDS011;3799;47.184;8.538;2023-07-28T05:21:19;4.13;;;1.20;;
7515;SDS011;3799;47.184;8.538;2023-07-28T05:23:46;2.35;;;0.90;;
7515;SDS011;3799;47.184;8.538;2023-07-28T05:26:13;2.75;;;1.00;;
7515;SDS011;3799;47.184;8.538;2023-07-28T05:28:40;2.60;;;0.90;;
7515;SDS011;3799;47.184;8.538;2023-07-28T05:31:07;5.03;;;1.50;;
7515;SDS011;3799;47.184;8.538;2023-07-28T05:33:34;2.10;;;0.85;;
7515;SDS011;3799;47.184;8.538;2023-07-28T05:36:04;3.65;;;0.93;;
7515;SDS011;3799;47.184;8.538;2023-07-28T05:38:32;2.42;;;1.00;;
7515;SDS011;3799;47.184;8.538;2023-07-28T05:41:00;2.40;;;0.98;;
7515;SDS011;3799;47.184;8.538;2023-07-28T05:45:57;2.30;;;0.98;;
7515;SDS011;3799;47.184;8.538;2023-07-28T05:48:26;3.28;;;1.38;;
7515;SDS011;3799;47.184;8.538;2023-07-28T05:50:53;3.17;;;1.17;;
7515;SDS011;3799;47.184;8.538;2023-07-28T05:53:21;7.97;;;1.60;;
7515;SDS011;3799;47.184;8.538;2023-07-28T05:55:48;3.95;;;1.30;;
7515;SDS011;3799;47.184;8.538;2023-07-28T05:58:15;2.58;;;1.05;;
7515;SDS011;3799;47.184;8.538;2023-07-28T06:00:42;2.08;;;0.88;;
7515;SDS011;3799;47.184;8.538;2023-07-28T06:03:10;4.32;;;1.13;;
7515;SDS011;3799;47.184;8.538;2023-07-28T06:05:40;2.40;;;1.02;;
7515;SDS011;3799;47.184;8.538;2023-07-28T06:08:08;2.58;;;1.00;;
7515;SDS011;3799;47.184;8.538;2023-07-28T06:10:36;2.10;;;0.93;;
7515;SDS011;3799;47.184;8.538;2023-07-28T06:13:04;3.10;;;1.20;;
7515;SDS011;3799;47.184;8.538;2023-07-28T06:15:34;2.42;;;1.30;;
7515;SDS011;3799;47.184;8.538;2023-07-28T06:18:01;2.72;;;1.02;;
7515;SDS011;3799;47.184;8.538;2023-07-28T06:20:29;4.10;;;1.40;;
7515;SDS011;3799;47.184;8.538;2023-07-28T06:22:57;3.38;;;0.98;;
7515;SDS011;3799;47.184;8.538;2023-07-28T06:25:24;3.40;;;1.10;;
7515;SDS011;3799;47.184;8.538;2023-07-28T06:27:52;3.85;;;1.35;;
7515;SDS011;3799;47.184;8.538;2023-07-28T06:30:19;6.05;;;1.33;;
7515;SDS011;3799;47.184;8.538;2023-07-28T06:32:47;3.33;;;1.48;;
7515;SDS011;3799;47.184;8.538;2023-07-28T06:35:14;3.20;;;1.38;;
7515;SDS011;3799;47.184;8.538;2023-07-28T06:37:42;4.65;;;1.15;;
7515;SDS011;3799;47.184;8.538;2023-07-28T06:40:09;5.35;;;1.35;;
7515;SDS011;3799;47.184;8.538;2023-07-28T06:42:36;2.08;;;1.02;;
7515;SDS011;3799;47.184;8.538;2023-07-28T06:45:04;4.40;;;1.48;;
7515;SDS011;3799;47.184;8.538;2023-07-28T06:47:31;4.10;;;1.42;;
7515;SDS011;3799;47.184;8.538;2023-07-28T06:49:59;4.43;;;1.70;;
7515;SDS011;3799;47.184;8.538;2023-07-28T06:52:26;5.65;;;2.13;;
7515;SDS011;3799;47.184;8.538;2023-07-28T06:54:53;2.97;;;1.27;;
7515;SDS011;3799;47.184;8.538;2023-07-28T06:57:21;3.78;;;1.35;;
7515;SDS011;3799;47.184;8.538;2023-07-28T06:59:57;3.33;;;1.50;;
7515;SDS011;3799;47.184;8.538;2023-07-28T07:02:24;5.00;;;1.27;;
7515;SDS011;3799;47.184;8.538;2023-07-28T07:04:52;3.30;;;1.25;;
7515;SDS011;3799;47.184;8.538;2023-07-28T07:07:21;5.18;;;1.38;;
7515;SDS011;3799;47.184;8.538;2023-07-28T07:09:48;2.53;;;1.20;;
7515;SDS011;3799;47.184;8.538;2023-07-28T07:12:18;5.22;;;1.33;;
7515;SDS011;3799;47.184;8.538;2023-07-28T07:14:50;3.58;;;1.40;;
7515;SDS011;3799;47.184;8.538;2023-07-28T07:17:21;4.05;;;1.50;;
7515;SDS011;3799;47.184;8.538;2023-07-28T07:19:48;5.03;;;1.67;;
7515;SDS011;3799;47.184;8.538;2023-07-28T07:22:17;5.38;;;1.80;;
7515;SDS011;3799;47.184;8.538;2023-07-28T07:24:50;5.80;;;1.63;;
7515;SDS011;3799;47.184;8.538;2023-07-28T07:27:20;3.97;;;1.70;;
7515;SDS011;3799;47.184;8.538;2023-07-28T07:29:50;5.63;;;1.88;;
7515;SDS011;3799;47.184;8.538;2023-07-28T07:32:21;3.88;;;1.70;;
7515;SDS011;3799;47.184;8.538;2023-07-28T07:34:48;5.57;;;1.58;;
7515;SDS011;3799;47.184;8.538;2023-07-28T07:37:18;4.65;;;1.58;;
7515;SDS011;3799;47.184;8.538;2023-07-28T07:39:46;2.83;;;1.23;;
7515;SDS011;3799;47.184;8.538;2023-07-28T07:42:21;4.22;;;1.52;;
7515;SDS011;3799;47.184;8.538;2023-07-28T07:44:48;5.82;;;1.63;;
7515;SDS011;3799;47.184;8.538;2023-07-28T07:47:15;3.17;;;1.38;;
7515;SDS011;3799;47.184;8.538;2023-07-28T07:49:43;3.22;;;1.30;;
7515;SDS011;3799;47.184;8.538;2023-07-28T07:52:13;4.97;;;1.73;;
7515;SDS011;3799;47.184;8.538;2023-07-28T07:54:41;5.07;;;1.95;;
7515;SDS011;3799;47.184;8.538;2023-07-28T07:57:11;4.00;;;1.40;;
7515;SDS011;3799;47.184;8.538;2023-07-28T07:59:44;3.17;;;1.50;;
7515;SDS011;3799;47.184;8.538;2023-07-28T08:02:11;3.63;;;1.45;;
7515;SDS011;3799;47.184;8.538;2023-07-28T08:04:44;2.75;;;1.48;;
7515;SDS011;3799;47.184;8.538;2023-07-28T08:07:12;3.55;;;1.58;;
7515;SDS011;3799;47.184;8.538;2023-07-28T08:09:42;4.18;;;2.03;;
7515;SDS011;3799;47.184;8.538;2023-07-28T08:12:10;5.53;;;1.45;;
7515;SDS011;3799;47.184;8.538;2023-07-28T08:14:38;5.05;;;1.55;;
7515;SDS011;3799;47.184;8.538;2023-07-28T08:17:05;3.55;;;1.38;;
7515;SDS011;3799;47.184;8.538;2023-07-28T08:19:32;5.30;;;1.88;;
7515;SDS011;3799;47.184;8.538;2023-07-28T08:22:00;3.30;;;1.70;;
7515;SDS011;3799;47.184;8.538;2023-07-28T08:24:31;5.63;;;1.65;;
7515;SDS011;3799;47.184;8.538;2023-07-28T08:26:58;3.83;;;1.60;;
7515;SDS011;3799;47.184;8.538;2023-07-28T08:29:25;3.83;;;2.10;;
7515;SDS011;3799;47.184;8.538;2023-07-28T08:31:56;6.50;;;1.67;;
7515;SDS011;3799;47.184;8.538;2023-07-28T08:34:23;3.03;;;1.60;;
7515;SDS011;3799;47.184;8.538;2023-07-28T08:36:50;3.20;;;1.40;;
7515;SDS011;3799;47.184;8.538;2023-07-28T08:41:47;6.18;;;1.83;;
7515;SDS011;3799;47.184;8.538;2023-07-28T08:44:23;5.78;;;1.60;;
7515;SDS011;3799;47.184;8.538;2023-07-28T08:46:50;3.13;;;1.42;;
7515;SDS011;3799;47.184;8.538;2023-07-28T08:49:18;3.50;;;1.60;;
7515;SDS011;3799;47.184;8.538;2023-07-28T08:51:49;2.70;;;1.20;;
7515;SDS011;3799;47.184;8.538;2023-07-28T08:54:17;4.03;;;1.30;;
7515;SDS011;3799;47.184;8.538;2023-07-28T08:56:44;4.07;;;1.85;;
7515;SDS011;3799;47.184;8.538;2023-07-28T08:59:12;2.70;;;1.38;;
7515;SDS011;3799;47.184;8.538;2023-07-28T09:01:49;2.83;;;1.20;;
7515;SDS011;3799;47.184;8.538;2023-07-28T09:04:17;4.85;;;1.42;;
7515;SDS011;3799;47.184;8.538;2023-07-28T09:06:45;2.95;;;1.20;;
7515;SDS011;3799;47.184;8.538;2023-07-28T09:09:14;6.32;;;1.67;;
7515;SDS011;3799;47.184;8.538;2023-07-28T09:11:48;3.65;;;1.60;;
7515;SDS011;3799;47.184;8.538;2023-07-28T09:14:21;2.70;;;1.38;;
7515;SDS011;3799;47.184;8.538;2023-07-28T09:16:52;4.63;;;1.52;;
7515;SDS011;3799;47.184;8.538;2023-07-28T09:19:20;3.58;;;1.52;;
7515;SDS011;3799;47.184;8.538;2023-07-28T09:21:58;4.15;;;1.65;;
7515;SDS011;3799;47.184;8.538;2023-07-28T09:24:31;4.07;;;1.50;;
7515;SDS011;3799;47.184;8.538;2023-07-28T09:27:00;4.25;;;1.35;;
7515;SDS011;3799;47.184;8.538;2023-07-28T09:29:28;3.70;;;1.40;;
7515;SDS011;3799;47.184;8.538;2023-07-28T09:32:03;2.90;;;1.70;;
7515;SDS011;3799;47.184;8.538;2023-07-28T09:34:35;3.13;;;1.55;;
7515;SDS011;3799;47.184;8.538;2023-07-28T09:37:04;4.50;;;1.70;;
7515;SDS011;3799;47.184;8.538;2023-07-28T09:39:35;6.40;;;1.42;;
7515;SDS011;3799;47.184;8.538;2023-07-28T09:42:03;3.28;;;1.48;;
7515;SDS011;3799;47.184;8.538;2023-07-28T09:44:35;4.60;;;1.80;;
7515;SDS011;3799;47.184;8.538;2023-07-28T09:47:03;3.40;;;1.50;;
7515;SDS011;3799;47.184;8.538;2023-07-28T09:52:06;3.00;;;1.50;;
7515;SDS011;3799;47.184;8.538;2023-07-28T09:54:38;3.42;;;1.77;;
7515;SDS011;3799;47.184;8.538;2023-07-28T09:57:08;3.95;;;1.42;;
7515;SDS011;3799;47.184;8.538;2023-07-28T09:59:40;4.18;;;1.42;;
7515;SDS011;3799;47.184;8.538;2023-07-28T10:02:08;2.70;;;1.33;;
7515;SDS011;3799;47.184;8.538;2023-07-28T10:04:37;4.38;;;2.05;;
7515;SDS011;3799;47.184;8.538;2023-07-28T10:07:05;3.63;;;1.73;;
7515;SDS011;3799;47.184;8.538;2023-07-28T10:09:34;3.67;;;1.45;;
7515;SDS011;3799;47.184;8.538;2023-07-28T10:12:03;2.92;;;1.92;;
7515;SDS011;3799;47.184;8.538;2023-07-28T10:14:35;3.55;;;1.48;;
7515;SDS011;3799;47.184;8.538;2023-07-28T10:17:06;3.38;;;1.63;;
7515;SDS011;3799;47.184;8.538;2023-07-28T10:19:42;2.55;;;1.58;;
7515;SDS011;3799;47.184;8.538;2023-07-28T10:22:10;2.70;;;1.30;;
7515;SDS011;3799;47.184;8.538;2023-07-28T10:30:19;3.58;;;1.80;;
7515;SDS011;3799;47.184;8.538;2023-07-28T10:32:48;4.45;;;2.13;;
7515;SDS011;3799;47.184;8.538;2023-07-28T10:35:25;3.47;;;1.48;;
7515;SDS011;3799;47.184;8.538;2023-07-28T10:37:53;3.80;;;1.50;;
7515;SDS011;3799;47.184;8.538;2023-07-28T10:40:27;2.60;;;1.42;;
7515;SDS011;3799;47.184;8.538;2023-07-28T10:43:03;4.97;;;1.60;;
7515;SDS011;3799;47.184;8.538;2023-07-28T10:45:33;3.70;;;1.67;;
7515;SDS011;3799;47.184;8.538;2023-07-28T10:48:00;4.63;;;1.55;;
7515;SDS011;3799;47.184;8.538;2023-07-28T10:50:30;4.63;;;1.70;;
7515;SDS011;3799;47.184;8.538;2023-07-28T10:53:04;3.05;;;1.63;;
7515;SDS011;3799;47.184;8.538;2023-07-28T10:55:31;3.05;;;1.42;;
7515;SDS011;3799;47.184;8.538;2023-07-28T10:57:58;4.53;;;1.52;;
7515;SDS011;3799;47.184;8.538;2023-07-28T11:00:27;2.47;;;1.20;;
7515;SDS011;3799;47.184;8.538;2023-07-28T11:02:55;2.78;;;1.50;;
7515;SDS011;3799;47.184;8.538;2023-07-28T11:07:57;4.97;;;1.90;;
7515;SDS011;3799;47.184;8.538;2023-07-28T11:10:31;4.10;;;1.52;;
7515;SDS011;3799;47.184;8.538;2023-07-28T11:13:00;2.72;;;1.50;;
7515;SDS011;3799;47.184;8.538;2023-07-28T11:15:55;4.82;;;1.38;;
7515;SDS011;3799;47.184;8.538;2023-07-28T11:18:25;4.25;;;1.45;;
7515;SDS011;3799;47.184;8.538;2023-07-28T11:20:58;4.47;;;1.42;;
7515;SDS011;3799;47.184;8.538;2023-07-28T11:23:30;5.50;;;1.75;;
7515;SDS011;3799;47.184;8.538;2023-07-28T11:25:57;2.80;;;1.40;;
7515;SDS011;3799;47.184;8.538;2023-07-28T11:28:25;4.07;;;1.67;;
7515;SDS011;3799;47.184;8.538;2023-07-28T11:30:55;4.65;;;1.63;;
7515;SDS011;3799;47.184;8.538;2023-07-28T11:33:22;3.42;;;1.60;;
7515;SDS011;3799;47.184;8.538;2023-07-28T11:35:50;4.78;;;1.80;;
7515;SDS011;3799;47.184;8.538;2023-07-28T11:38:17;2.63;;;1.40;;
7515;SDS011;3799;47.184;8.538;2023-07-28T11:40:44;3.28;;;1.50;;
7515;SDS011;3799;47.184;8.538;2023-07-28T11:43:12;3.80;;;1.80;;
7515;SDS011;3799;47.184;8.538;2023-07-28T11:45:40;4.15;;;1.88;;
7515;SDS011;3799;47.184;8.538;2023-07-28T11:48:07;3.97;;;1.90;;
7515;SDS011;3799;47.184;8.538;2023-07-28T11:50:35;2.70;;;1.40;;
7515;SDS011;3799;47.184;8.538;2023-07-28T11:53:09;3.08;;;1.50;;
7515;SDS011;3799;47.184;8.538;2023-07-28T11:55:36;3.40;;;1.75;;
7515;SDS011;3799;47.184;8.538;2023-07-28T11:58:05;4.93;;;1.67;;
7515;SDS011;3799;47.184;8.538;2023-07-28T12:00:37;3.70;;;1.75;;
7515;SDS011;3799;47.184;8.538;2023-07-28T12:03:07;4.40;;;1.85;;
7515;SDS011;3799;47.184;8.538;2023-07-28T12:05:40;4.00;;;1.90;;
7515;SDS011;3799;47.184;8.538;2023-07-28T12:08:36;4.15;;;2.05;;
7515;SDS011;3799;47.184;8.538;2023-07-28T12:11:04;5.47;;;2.25;;
7515;SDS011;3799;47.184;8.538;2023-07-28T12:13:50;3.55;;;1.85;;
7515;SDS011;3799;47.184;8.538;2023-07-28T12:16:39;4.40;;;1.83;;
7515;SDS011;3799;47.184;8.538;2023-07-28T12:19:13;3.90;;;1.60;;
7515;SDS011;3799;47.184;8.538;2023-07-28T12:21:41;3.33;;;1.85;;
7515;SDS011;3799;47.184;8.538;2023-07-28T12:24:12;3.70;;;2.03;;
7515;SDS011;3799;47.184;8.538;2023-07-28T12:26:39;3.58;;;1.70;;
7515;SDS011;3799;47.184;8.538;2023-07-28T12:29:07;3.78;;;1.73;;
7515;SDS011;3799;47.184;8.538;2023-07-28T12:31:37;3.50;;;1.80;;
7515;SDS011;3799;47.184;8.538;2023-07-28T12:34:07;7.25;;;2.30;;
7515;SDS011;3799;47.184;8.538;2023-07-28T12:36:35;3.95;;;2.03;;
7515;SDS011;3799;47.184;8.538;2023-07-28T12:39:10;4.75;;;2.22;;
7515;SDS011;3799;47.184;8.538;2023-07-28T12:41:45;5.97;;;1.80;;
7515;SDS011;3799;47.184;8.538;2023-07-28T12:44:32;4.32;;;1.85;;
7515;SDS011;3799;47.184;8.538;2023-07-28T12:47:03;4.13;;;1.90;;
7515;SDS011;3799;47.184;8.538;2023-07-28T12:52:03;5.10;;;2.05;;
7515;SDS011;3799;47.184;8.538;2023-07-28T12:54:33;3.38;;;2.20;;
7515;SDS011;3799;47.184;8.538;2023-07-28T12:57:10;3.10;;;1.83;;
7515;SDS011;3799;47.184;8.538;2023-07-28T12:59:39;3.75;;;2.05;;
7515;SDS011;3799;47.184;8.538;2023-07-28T13:02:09;3.92;;;1.90;;
7515;SDS011;3799;47.184;8.538;2023-07-28T13:04:37;3.22;;;1.88;;
7515;SDS011;3799;47.184;8.538;2023-07-28T13:07:04;5.38;;;2.05;;
7515;SDS011;3799;47.184;8.538;2023-07-28T13:09:35;4.18;;;1.98;;
7515;SDS011;3799;47.184;8.538;2023-07-28T13:12:08;4.10;;;2.03;;
7515;SDS011;3799;47.184;8.538;2023-07-28T13:14:38;3.75;;;1.92;;
7515;SDS011;3799;47.184;8.538;2023-07-28T13:17:06;4.50;;;1.85;;
7515;SDS011;3799;47.184;8.538;2023-07-28T13:19:33;3.47;;;1.98;;
7515;SDS011;3799;47.184;8.538;2023-07-28T13:22:00;3.92;;;2.30;;
7515;SDS011;3799;47.184;8.538;2023-07-28T13:24:28;3.72;;;2.10;;
7515;SDS011;3799;47.184;8.538;2023-07-28T13:26:55;4.38;;;2.10;;
7515;SDS011;3799;47.184;8.538;2023-07-28T13:29:22;3.53;;;1.90;;
7515;SDS011;3799;47.184;8.538;2023-07-28T13:31:49;4.38;;;2.00;;
7515;SDS011;3799;47.184;8.538;2023-07-28T13:34:17;4.30;;;1.98;;
7515;SDS011;3799;47.184;8.538;2023-07-28T13:36:44;4.50;;;2.30;;
7515;SDS011;3799;47.184;8.538;2023-07-28T13:39:16;5.47;;;2.05;;
7515;SDS011;3799;47.184;8.538;2023-07-28T13:41:43;4.80;;;2.08;;
7515;SDS011;3799;47.184;8.538;2023-07-28T13:44:15;3.97;;;2.03;;
7515;SDS011;3799;47.184;8.538;2023-07-28T13:46:42;3.58;;;1.98;;
7515;SDS011;3799;47.184;8.538;2023-07-28T13:49:09;5.55;;;2.22;;
7515;SDS011;3799;47.184;8.538;2023-07-28T13:51:46;3.83;;;2.20;;
7515;SDS011;3799;47.184;8.538;2023-07-28T13:54:18;3.75;;;2.30;;
7515;SDS011;3799;47.184;8.538;2023-07-28T13:56:50;3.92;;;1.95;;
7515;SDS011;3799;47.184;8.538;2023-07-28T13:59:21;4.40;;;1.95;;
7515;SDS011;3799;47.184;8.538;2023-07-28T14:01:48;3.42;;;2.00;;
7515;SDS011;3799;47.184;8.538;2023-07-28T14:04:16;4.32;;;2.30;;
7515;SDS011;3799;47.184;8.538;2023-07-28T14:06:43;8.43;;;2.42;;
7515;SDS011;3799;47.184;8.538;2023-07-28T14:09:10;4.47;;;2.20;;
7515;SDS011;3799;47.184;8.538;2023-07-28T14:11:38;3.40;;;1.90;;
7515;SDS011;3799;47.184;8.538;2023-07-28T14:14:05;4.72;;;2.10;;
7515;SDS011;3799;47.184;8.538;2023-07-28T14:19:01;3.67;;;2.03;;
7515;SDS011;3799;47.184;8.538;2023-07-28T14:21:31;3.58;;;2.20;;
7515;SDS011;3799;47.184;8.538;2023-07-28T14:23:59;5.55;;;2.47;;
7515;SDS011;3799;47.184;8.538;2023-07-28T14:26:26;8.00;;;2.20;;
7515;SDS011;3799;47.184;8.538;2023-07-28T14:28:53;5.03;;;2.15;;
7515;SDS011;3799;47.184;8.538;2023-07-28T14:31:21;5.18;;;2.00;;
7515;SDS011;3799;47.184;8.538;2023-07-28T14:33:48;3.78;;;2.05;;
7515;SDS011;3799;47.184;8.538;2023-07-28T14:36:16;5.40;;;2.22;;
7515;SDS011;3799;47.184;8.538;2023-07-28T14:38:52;5.35;;;1.88;;
7515;SDS011;3799;47.184;8.538;2023-07-28T14:41:20;4.65;;;2.30;;
7515;SDS011;3799;47.184;8.538;2023-07-28T14:43:47;4.50;;;1.98;;
7515;SDS011;3799;47.184;8.538;2023-07-28T14:46:16;5.82;;;2.08;;
7515;SDS011;3799;47.184;8.538;2023-07-28T14:48:54;3.42;;;2.05;;
7515;SDS011;3799;47.184;8.538;2023-07-28T14:51:22;4.70;;;2.40;;
7515;SDS011;3799;47.184;8.538;2023-07-28T14:53:49;3.50;;;1.75;;
7515;SDS011;3799;47.184;8.538;2023-07-28T14:56:20;5.60;;;2.08;;
7515;SDS011;3799;47.184;8.538;2023-07-28T14:58:51;4.88;;;2.63;;
7515;SDS011;3799;47.184;8.538;2023-07-28T15:01:18;4.95;;;2.03;;
7515;SDS011;3799;47.184;8.538;2023-07-28T15:03:46;2.78;;;1.85;;
7515;SDS011;3799;47.184;8.538;2023-07-28T15:06:14;4.32;;;1.92;;
7515;SDS011;3799;47.184;8.538;2023-07-28T15:08:41;3.38;;;1.83;;
7515;SDS011;3799;47.184;8.538;2023-07-28T15:11:09;4.45;;;1.80;;
7515;SDS011;3799;47.184;8.538;2023-07-28T15:13:38;5.40;;;1.88;;
7515;SDS011;3799;47.184;8.538;2023-07-28T15:16:08;4.07;;;1.67;;
7515;SDS011;3799;47.184;8.538;2023-07-28T15:18:35;3.30;;;1.42;;
7515;SDS011;3799;47.184;8.538;2023-07-28T15:21:02;4.28;;;1.67;;
7515;SDS011;3799;47.184;8.538;2023-07-28T15:23:30;3.38;;;1.83;;
7515;SDS011;3799;47.184;8.538;2023-07-28T15:25:57;4.95;;;1.70;;
7515;SDS011;3799;47.184;8.538;2023-07-28T15:28:25;3.22;;;1.52;;
7515;SDS011;3799;47.184;8.538;2023-07-28T15:30:52;4.70;;;2.35;;
7515;SDS011;3799;47.184;8.538;2023-07-28T15:33:22;4.03;;;1.60;;
7515;SDS011;3799;47.184;8.538;2023-07-28T15:35:55;2.63;;;1.42;;
7515;SDS011;3799;47.184;8.538;2023-07-28T15:38:28;3.60;;;1.90;;
7515;SDS011;3799;47.184;8.538;2023-07-28T15:40:55;3.33;;;1.63;;
7515;SDS011;3799;47.184;8.538;2023-07-28T15:43:24;3.53;;;1.70;;
7515;SDS011;3799;47.184;8.538;2023-07-28T15:45:54;2.15;;;1.00;;
7515;SDS011;3799;47.184;8.538;2023-07-28T15:48:23;3.42;;;1.90;;
7515;SDS011;3799;47.184;8.538;2023-07-28T15:50:53;4.82;;;1.63;;
7515;SDS011;3799;47.184;8.538;2023-07-28T15:53:20;4.82;;;1.42;;
7515;SDS011;3799;47.184;8.538;2023-07-28T15:55:48;3.53;;;1.50;;
7515;SDS011;3799;47.184;8.538;2023-07-28T15:58:15;2.35;;;1.20;;